sensor_id;sensor_type;location;lat;lon;timestamp;temperature;humidity
39657;DHT22;25337;51.478;7.510;2022-08-03T00:00:37;18.80;99.90
39657;DHT22;25337;51.478;7.510;2022-08-03T00:03:03;18.80;99.90
39657;DHT22;25337;51.478;7.510;2022-08-03T00:05:28;18.80;99.90
39657;DHT22;25337;51.478;7.510;2022-08-03T00:07:54;18.90;99.90
39657;DHT22;25337;51.478;7.510;2022-08-03T00:10:20;18.90;99.90
39657;DHT22;25337;51.478;7.510;2022-08-03T00:12:45;19.00;99.90
39657;DHT22;25337;51.478;7.510;2022-08-03T00:15:11;19.00;99.90
39657;DHT22;25337;51.478;7.510;2022-08-03T00:17:36;19.20;99.90
39657;DHT22;25337;51.478;7.510;2022-08-03T00:20:02;19.30;99.90
39657;DHT22;25337;51.478;7.510;2022-08-03T00:22:27;19.30;99.90
39657;DHT22;25337;51.478;7.510;2022-08-03T00:24:53;19.20;99.90
39657;DHT22;25337;51.478;7.510;2022-08-03T00:27:18;19.20;99.90
39657;DHT22;25337;51.478;7.510;2022-08-03T00:29:44;19.30;99.90
39657;DHT22;25337;51.478;7.510;2022-08-03T00:32:09;19.60;99.90
39657;DHT22;25337;51.478;7.510;2022-08-03T00:34:35;19.90;99.90
39657;DHT22;25337;51.478;7.510;2022-08-03T00:37:00;20.00;99.90
39657;DHT22;25337;51.478;7.510;2022-08-03T00:39:26;19.80;99.90
39657;DHT22;25337;51.478;7.510;2022-08-03T00:41:52;19.80;99.90
39657;DHT22;25337;51.478;7.510;2022-08-03T00:44:17;19.70;99.90
39657;DHT22;25337;51.478;7.510;2022-08-03T00:46:43;19.60;99.90
39657;DHT22;25337;51.478;7.510;2022-08-03T00:49:08;19.50;99.90
39657;DHT22;25337;51.478;7.510;2022-08-03T00:51:34;19.60;99.90
39657;DHT22;25337;51.478;7.510;2022-08-03T00:54:00;19.50;99.90
39657;DHT22;25337;51.478;7.510;2022-08-03T00:56:25;19.60;99.90
39657;DHT22;25337;51.478;7.510;2022-08-03T00:58:51;19.50;99.90
39657;DHT22;25337;51.478;7.510;2022-08-03T01:01:18;19.60;99.90
39657;DHT22;25337;51.478;7.510;2022-08-03T01:03:44;19.70;99.90
39657;DHT22;25337;51.478;7.510;2022-08-03T01:06:16;19.80;99.90
39657;DHT22;25337;51.478;7.510;2022-08-03T01:08:45;19.60;99.90
39657;DHT22;25337;51.478;7.510;2022-08-03T01:13:43;19.30;99.90
39657;DHT22;25337;51.478;7.510;2022-08-03T01:16:17;19.30;99.90
39657;DHT22;25337;51.478;7.510;2022-08-03T01:18:50;19.30;99.90
39657;DHT22;25337;51.478;7.510;2022-08-03T01:21:23;19.40;99.90
39657;DHT22;25337;51.478;7.510;2022-08-03T01:24:05;19.50;99.90
39657;DHT22;25337;51.478;7.510;2022-08-03T01:29:27;19.80;99.90
39657;DHT22;25337;51.478;7.510;2022-08-03T01:32:04;19.90;99.90
39657;DHT22;25337;51.478;7.510;2022-08-03T01:34:31;20.00;99.90
39657;DHT22;25337;51.478;7.510;2022-08-03T01:36:59;20.00;99.90
39657;DHT22;25337;51.478;7.510;2022-08-03T01:39:27;20.10;99.90
39657;DHT22;25337;51.478;7.510;2022-08-03T01:41:55;20.10;99.90
39657;DHT22;25337;51.478;7.510;2022-08-03T01:44:25;20.20;99.90
39657;DHT22;25337;51.478;7.510;2022-08-03T01:46:54;20.20;99.90
39657;DHT22;25337;51.478;7.510;2022-08-03T01:49:22;20.10;99.90
39657;DHT22;25337;51.478;7.510;2022-08-03T01:51:48;20.00;99.90
39657;DHT22;25337;51.478;7.510;2022-08-03T01:54:15;19.90;99.90
39657;DHT22;25337;51.478;7.510;2022-08-03T01:56:41;19.90;99.90
39657;DHT22;25337;51.478;7.510;2022-08-03T01:59:07;19.80;99.90
39657;DHT22;25337;51.478;7.510;2022-08-03T02:01:34;19.60;99.90
39657;DHT22;25337;51.478;7.510;2022-08-03T02:04:00;19.40;99.90
39657;DHT22;25337;51.478;7.510;2022-08-03T02:06:28;19.10;99.90
39657;DHT22;25337;51.478;7.510;2022-08-03T02:08:54;18.80;99.90
39657;DHT22;25337;51.478;7.510;2022-08-03T02:11:21;18.60;99.90
39657;DHT22;25337;51.478;7.510;2022-08-03T02:13:47;18.30;99.90
39657;DHT22;25337;51.478;7.510;2022-08-03T02:16:13;18.30;99.90
39657;DHT22;25337;51.478;7.510;2022-08-03T02:18:39;18.30;99.90
39657;DHT22;25337;51.478;7.510;2022-08-03T02:21:04;18.30;99.90
39657;DHT22;25337;51.478;7.510;2022-08-03T02:23:31;18.60;99.90
39657;DHT22;25337;51.478;7.510;2022-08-03T02:25:57;18.70;99.90
39657;DHT22;25337;51.478;7.510;2022-08-03T02:28:25;18.80;99.90
39657;DHT22;25337;51.478;7.510;2022-08-03T02:30:53;18.80;99.90
39657;DHT22;25337;51.478;7.510;2022-08-03T02:33:21;18.80;99.90
39657;DHT22;25337;51.478;7.510;2022-08-03T02:35:48;18.80;99.90
39657;DHT22;25337;51.478;7.510;2022-08-03T02:38:15;18.70;99.90
39657;DHT22;25337;51.478;7.510;2022-08-03T02:40:42;18.60;99.90
39657;DHT22;25337;51.478;7.510;2022-08-03T02:43:09;18.50;99.90
39657;DHT22;25337;51.478;7.510;2022-08-03T02:45:38;18.40;99.90
39657;DHT22;25337;51.478;7.510;2022-08-03T02:48:06;18.30;99.90
39657;DHT22;25337;51.478;7.510;2022-08-03T02:50:32;18.20;99.90
39657;DHT22;25337;51.478;7.510;2022-08-03T02:52:59;18.00;99.90
39657;DHT22;25337;51.478;7.510;2022-08-03T02:55:25;17.90;99.90
39657;DHT22;25337;51.478;7.510;2022-08-03T02:57:52;17.90;99.90
39657;DHT22;25337;51.478;7.510;2022-08-03T03:00:18;17.80;99.90
39657;DHT22;25337;51.478;7.510;2022-08-03T03:02:44;17.80;99.90
39657;DHT22;25337;51.478;7.510;2022-08-03T03:05:10;17.70;99.90
39657;DHT22;25337;51.478;7.510;2022-08-03T03:07:36;17.60;99.90
39657;DHT22;25337;51.478;7.510;2022-08-03T03:10:03;17.60;99.90
39657;DHT22;25337;51.478;7.510;2022-08-03T03:12:29;17.60;99.90
39657;DHT22;25337;51.478;7.510;2022-08-03T03:14:55;17.80;99.90
39657;DHT22;25337;51.478;7.510;2022-08-03T03:17:21;18.00;99.90
39657;DHT22;25337;51.478;7.510;2022-08-03T03:19:46;18.30;99.90
39657;DHT22;25337;51.478;7.510;2022-08-03T03:22:13;18.50;99.90
39657;DHT22;25337;51.478;7.510;2022-08-03T03:24:40;18.70;99.90
39657;DHT22;25337;51.478;7.510;2022-08-03T03:27:06;18.60;99.90
39657;DHT22;25337;51.478;7.510;2022-08-03T03:29:32;18.40;99.90
39657;DHT22;25337;51.478;7.510;2022-08-03T03:31:59;18.10;99.90
39657;DHT22;25337;51.478;7.510;2022-08-03T03:34:25;18.00;99.90
39657;DHT22;25337;51.478;7.510;2022-08-03T03:36:51;18.00;99.90
39657;DHT22;25337;51.478;7.510;2022-08-03T03:39:16;17.80;99.90
39657;DHT22;25337;51.478;7.510;2022-08-03T03:41:42;17.80;99.90
39657;DHT22;25337;51.478;7.510;2022-08-03T03:44:07;17.80;99.90
39657;DHT22;25337;51.478;7.510;2022-08-03T03:46:33;17.80;99.90
39657;DHT22;25337;51.478;7.510;2022-08-03T03:48:58;18.20;99.90
39657;DHT22;25337;51.478;7.510;2022-08-03T03:51:24;18.40;99.90
39657;DHT22;25337;51.478;7.510;2022-08-03T03:53:56;18.60;99.90
39657;DHT22;25337;51.478;7.510;2022-08-03T03:56:22;18.80;99.90
39657;DHT22;25337;51.478;7.510;2022-08-03T03:58:47;18.80;99.90
39657;DHT22;25337;51.478;7.510;2022-08-03T04:01:13;18.80;99.90
39657;DHT22;25337;51.478;7.510;2022-08-03T04:03:38;18.80;99.90
39657;DHT22;25337;51.478;7.510;2022-08-03T04:06:04;18.70;99.90
39657;DHT22;25337;51.478;7.510;2022-08-03T04:08:48;18.60;99.90
39657;DHT22;25337;51.478;7.510;2022-08-03T04:11:37;18.60;99.90
39657;DHT22;25337;51.478;7.510;2022-08-03T04:16:39;18.30;99.90
39657;DHT22;25337;51.478;7.510;2022-08-03T04:19:09;18.40;99.90
39657;DHT22;25337;51.478;7.510;2022-08-03T04:21:36;18.50;99.90
39657;DHT22;25337;51.478;7.510;2022-08-03T04:24:05;18.70;99.90
39657;DHT22;25337;51.478;7.510;2022-08-03T04:26:33;18.90;99.90
39657;DHT22;25337;51.478;7.510;2022-08-03T04:29:00;19.00;99.90
39657;DHT22;25337;51.478;7.510;2022-08-03T04:31:26;19.10;99.90
39657;DHT22;25337;51.478;7.510;2022-08-03T04:33:53;19.10;99.90
39657;DHT22;25337;51.478;7.510;2022-08-03T04:36:20;19.10;99.90
39657;DHT22;25337;51.478;7.510;2022-08-03T04:41:27;19.20;99.90
39657;DHT22;25337;51.478;7.510;2022-08-03T04:43:56;19.30;99.90
39657;DHT22;25337;51.478;7.510;2022-08-03T04:46:23;19.30;99.90
39657;DHT22;25337;51.478;7.510;2022-08-03T04:48:50;19.30;99.90
39657;DHT22;25337;51.478;7.510;2022-08-03T04:51:16;19.50;99.90
39657;DHT22;25337;51.478;7.510;2022-08-03T04:53:42;19.60;99.90
39657;DHT22;25337;51.478;7.510;2022-08-03T04:57:22;19.70;99.90
39657;DHT22;25337;51.478;7.510;2022-08-03T04:59:48;19.70;99.90
39657;DHT22;25337;51.478;7.510;2022-08-03T05:02:17;19.70;99.90
39657;DHT22;25337;51.478;7.510;2022-08-03T05:04:42;19.80;99.90
39657;DHT22;25337;51.478;7.510;2022-08-03T05:07:14;19.90;99.90
39657;DHT22;25337;51.478;7.510;2022-08-03T05:09:39;19.90;99.90
39657;DHT22;25337;51.478;7.510;2022-08-03T05:12:05;20.00;99.90
39657;DHT22;25337;51.478;7.510;2022-08-03T05:14:31;20.10;99.90
39657;DHT22;25337;51.478;7.510;2022-08-03T05:16:57;20.10;99.90
39657;DHT22;25337;51.478;7.510;2022-08-03T05:19:23;20.20;99.90
39657;DHT22;25337;51.478;7.510;2022-08-03T05:21:48;20.40;99.90
39657;DHT22;25337;51.478;7.510;2022-08-03T05:24:14;20.50;99.90
39657;DHT22;25337;51.478;7.510;2022-08-03T05:26:40;20.50;99.90
39657;DHT22;25337;51.478;7.510;2022-08-03T05:29:05;20.60;99.90
39657;DHT22;25337;51.478;7.510;2022-08-03T05:31:31;20.70;99.90
39657;DHT22;25337;51.478;7.510;2022-08-03T05:33:56;20.80;99.90
39657;DHT22;25337;51.478;7.510;2022-08-03T05:36:22;20.80;99.90
39657;DHT22;25337;51.478;7.510;2022-08-03T05:38:47;20.90;99.90
39657;DHT22;25337;51.478;7.510;2022-08-03T05:41:13;21.00;99.90
39657;DHT22;25337;51.478;7.510;2022-08-03T05:43:39;21.10;99.90
39657;DHT22;25337;51.478;7.510;2022-08-03T05:46:04;21.10;99.90
39657;DHT22;25337;51.478;7.510;2022-08-03T05:48:30;21.20;99.90
39657;DHT22;25337;51.478;7.510;2022-08-03T05:50:55;21.20;99.90
39657;DHT22;25337;51.478;7.510;2022-08-03T05:53:21;21.30;99.90
39657;DHT22;25337;51.478;7.510;2022-08-03T05:55:46;21.40;99.90
39657;DHT22;25337;51.478;7.510;2022-08-03T05:58:12;21.50;99.90
39657;DHT22;25337;51.478;7.510;2022-08-03T06:00:37;21.50;99.90
39657;DHT22;25337;51.478;7.510;2022-08-03T06:03:03;21.60;99.90
39657;DHT22;25337;51.478;7.510;2022-08-03T06:05:29;21.70;99.90
39657;DHT22;25337;51.478;7.510;2022-08-03T06:07:55;21.80;99.90
39657;DHT22;25337;51.478;7.510;2022-08-03T06:10:21;21.70;99.90
39657;DHT22;25337;51.478;7.510;2022-08-03T06:12:46;21.90;99.90
39657;DHT22;25337;51.478;7.510;2022-08-03T06:15:13;21.90;99.90
39657;DHT22;25337;51.478;7.510;2022-08-03T06:17:49;21.90;99.90
39657;DHT22;25337;51.478;7.510;2022-08-03T06:20:16;22.00;99.90
39657;DHT22;25337;51.478;7.510;2022-08-03T06:22:42;22.10;99.90
39657;DHT22;25337;51.478;7.510;2022-08-03T06:25:08;22.10;99.90
39657;DHT22;25337;51.478;7.510;2022-08-03T06:27:33;22.10;99.90
39657;DHT22;25337;51.478;7.510;2022-08-03T06:30:01;22.20;99.90
39657;DHT22;25337;51.478;7.510;2022-08-03T06:32:26;22.40;99.90
39657;DHT22;25337;51.478;7.510;2022-08-03T06:34:52;22.50;99.90
39657;DHT22;25337;51.478;7.510;2022-08-03T06:37:17;22.70;99.90
39657;DHT22;25337;51.478;7.510;2022-08-03T06:39:43;22.80;99.90
39657;DHT22;25337;51.478;7.510;2022-08-03T06:42:08;23.00;99.90
39657;DHT22;25337;51.478;7.510;2022-08-03T06:44:34;23.10;99.90
39657;DHT22;25337;51.478;7.510;2022-08-03T06:47:01;23.20;99.90
39657;DHT22;25337;51.478;7.510;2022-08-03T06:49:27;23.30;99.90
39657;DHT22;25337;51.478;7.510;2022-08-03T06:51:52;23.40;99.90
39657;DHT22;25337;51.478;7.510;2022-08-03T06:54:18;23.60;99.90
39657;DHT22;25337;51.478;7.510;2022-08-03T06:56:46;23.60;99.90
39657;DHT22;25337;51.478;7.510;2022-08-03T06:59:12;23.70;99.90
39657;DHT22;25337;51.478;7.510;2022-08-03T07:01:37;23.70;99.90
39657;DHT22;25337;51.478;7.510;2022-08-03T07:04:03;23.80;99.90
39657;DHT22;25337;51.478;7.510;2022-08-03T07:06:28;23.90;99.90
39657;DHT22;25337;51.478;7.510;2022-08-03T07:08:54;23.90;99.90
39657;DHT22;25337;51.478;7.510;2022-08-03T07:11:20;24.00;99.90
39657;DHT22;25337;51.478;7.510;2022-08-03T07:13:46;24.00;99.90
39657;DHT22;25337;51.478;7.510;2022-08-03T07:16:11;24.30;99.90
39657;DHT22;25337;51.478;7.510;2022-08-03T07:18:37;24.50;99.90
39657;DHT22;25337;51.478;7.510;2022-08-03T07:21:03;24.70;99.90
39657;DHT22;25337;51.478;7.510;2022-08-03T07:23:28;24.90;99.90
39657;DHT22;25337;51.478;7.510;2022-08-03T07:25:54;25.00;99.90
39657;DHT22;25337;51.478;7.510;2022-08-03T07:28:19;24.90;99.90
39657;DHT22;25337;51.478;7.510;2022-08-03T07:30:45;24.90;99.90
39657;DHT22;25337;51.478;7.510;2022-08-03T07:33:11;24.80;99.90
39657;DHT22;25337;51.478;7.510;2022-08-03T07:35:36;24.90;99.90
39657;DHT22;25337;51.478;7.510;2022-08-03T07:38:02;25.10;99.90
39657;DHT22;25337;51.478;7.510;2022-08-03T07:40:27;25.40;99.90
39657;DHT22;25337;51.478;7.510;2022-08-03T07:42:53;25.40;99.90
39657;DHT22;25337;51.478;7.510;2022-08-03T07:45:18;25.50;99.90
39657;DHT22;25337;51.478;7.510;2022-08-03T07:47:45;25.70;99.90
39657;DHT22;25337;51.478;7.510;2022-08-03T07:50:11;25.80;99.90
39657;DHT22;25337;51.478;7.510;2022-08-03T07:52:36;26.00;99.90
39657;DHT22;25337;51.478;7.510;2022-08-03T07:55:14;26.10;99.90
39657;DHT22;25337;51.478;7.510;2022-08-03T07:57:40;26.20;99.90
39657;DHT22;25337;51.478;7.510;2022-08-03T08:00:06;26.20;99.90
39657;DHT22;25337;51.478;7.510;2022-08-03T08:02:35;26.30;99.90
39657;DHT22;25337;51.478;7.510;2022-08-03T08:05:00;26.50;99.90
39657;DHT22;25337;51.478;7.510;2022-08-03T08:07:26;26.70;99.90
39657;DHT22;25337;51.478;7.510;2022-08-03T08:09:51;26.70;99.90
39657;DHT22;25337;51.478;7.510;2022-08-03T08:12:17;26.70;99.90
39657;DHT22;25337;51.478;7.510;2022-08-03T08:14:43;26.60;99.90
39657;DHT22;25337;51.478;7.510;2022-08-03T08:17:11;26.60;99.90
39657;DHT22;25337;51.478;7.510;2022-08-03T08:19:36;27.00;99.90
39657;DHT22;25337;51.478;7.510;2022-08-03T08:22:02;27.40;99.90
39657;DHT22;25337;51.478;7.510;2022-08-03T08:24:27;27.80;99.90
39657;DHT22;25337;51.478;7.510;2022-08-03T08:26:55;28.20;98.70
39657;DHT22;25337;51.478;7.510;2022-08-03T08:29:20;28.40;98.30
39657;DHT22;25337;51.478;7.510;2022-08-03T08:31:47;28.40;98.70
39657;DHT22;25337;51.478;7.510;2022-08-03T08:34:14;28.40;98.40
39657;DHT22;25337;51.478;7.510;2022-08-03T08:36:40;28.70;97.70
39657;DHT22;25337;51.478;7.510;2022-08-03T08:39:06;29.30;96.90
39657;DHT22;25337;51.478;7.510;2022-08-03T08:41:31;29.80;96.00
39657;DHT22;25337;51.478;7.510;2022-08-03T08:43:59;30.30;95.10
39657;DHT22;25337;51.478;7.510;2022-08-03T08:46:25;30.20;94.80
39657;DHT22;25337;51.478;7.510;2022-08-03T08:48:51;29.60;95.00
39657;DHT22;25337;51.478;7.510;2022-08-03T08:51:18;29.70;95.20
39657;DHT22;25337;51.478;7.510;2022-08-03T08:53:44;29.50;95.50
39657;DHT22;25337;51.478;7.510;2022-08-03T08:56:12;29.50;94.80
39657;DHT22;25337;51.478;7.510;2022-08-03T08:58:43;29.80;94.30
39657;DHT22;25337;51.478;7.510;2022-08-03T09:01:11;30.30;93.70
39657;DHT22;25337;51.478;7.510;2022-08-03T09:03:36;30.60;93.30
39657;DHT22;25337;51.478;7.510;2022-08-03T09:06:02;30.70;92.40
39657;DHT22;25337;51.478;7.510;2022-08-03T09:08:28;30.70;92.50
39657;DHT22;25337;51.478;7.510;2022-08-03T09:10:54;31.00;92.20
39657;DHT22;25337;51.478;7.510;2022-08-03T09:13:19;31.10;92.30
39657;DHT22;25337;51.478;7.510;2022-08-03T09:15:45;31.40;92.00
39657;DHT22;25337;51.478;7.510;2022-08-03T09:18:11;31.70;91.10
39657;DHT22;25337;51.478;7.510;2022-08-03T09:20:38;31.00;91.10
39657;DHT22;25337;51.478;7.510;2022-08-03T09:23:04;31.20;91.60
39657;DHT22;25337;51.478;7.510;2022-08-03T09:25:41;30.80;91.30
39657;DHT22;25337;51.478;7.510;2022-08-03T09:28:11;31.00;91.90
39657;DHT22;25337;51.478;7.510;2022-08-03T09:30:38;31.20;91.70
39657;DHT22;25337;51.478;7.510;2022-08-03T09:33:05;32.10;90.90
39657;DHT22;25337;51.478;7.510;2022-08-03T09:35:31;32.40;89.10
39657;DHT22;25337;51.478;7.510;2022-08-03T09:38:09;32.40;89.80
39657;DHT22;25337;51.478;7.510;2022-08-03T09:40:35;32.40;89.30
39657;DHT22;25337;51.478;7.510;2022-08-03T09:43:00;32.00;88.00
39657;DHT22;25337;51.478;7.510;2022-08-03T09:45:26;31.30;90.20
39657;DHT22;25337;51.478;7.510;2022-08-03T09:47:52;31.60;89.60
39657;DHT22;25337;51.478;7.510;2022-08-03T09:50:18;31.60;89.40
39657;DHT22;25337;51.478;7.510;2022-08-03T09:52:43;31.40;90.60
39657;DHT22;25337;51.478;7.510;2022-08-03T09:55:12;31.80;90.00
39657;DHT22;25337;51.478;7.510;2022-08-03T09:57:38;32.60;88.00
39657;DHT22;25337;51.478;7.510;2022-08-03T10:00:11;32.40;87.50
39657;DHT22;25337;51.478;7.510;2022-08-03T10:02:38;32.40;88.40
39657;DHT22;25337;51.478;7.510;2022-08-03T10:05:04;32.60;86.90
39657;DHT22;25337;51.478;7.510;2022-08-03T10:07:29;32.60;85.10
39657;DHT22;25337;51.478;7.510;2022-08-03T10:10:05;32.20;86.00
39657;DHT22;25337;51.478;7.510;2022-08-03T10:12:31;32.60;85.60
39657;DHT22;25337;51.478;7.510;2022-08-03T10:14:57;32.90;85.20
39657;DHT22;25337;51.478;7.510;2022-08-03T10:17:23;33.00;85.40
39657;DHT22;25337;51.478;7.510;2022-08-03T10:19:48;33.40;84.00
39657;DHT22;25337;51.478;7.510;2022-08-03T10:22:15;32.90;84.50
39657;DHT22;25337;51.478;7.510;2022-08-03T10:24:57;33.30;84.40
39657;DHT22;25337;51.478;7.510;2022-08-03T10:27:23;33.00;83.80
39657;DHT22;25337;51.478;7.510;2022-08-03T10:29:54;32.50;82.90
39657;DHT22;25337;51.478;7.510;2022-08-03T10:35:14;33.30;83.70
39657;DHT22;25337;51.478;7.510;2022-08-03T10:37:41;33.90;80.90
39657;DHT22;25337;51.478;7.510;2022-08-03T10:40:09;34.20;80.90
39657;DHT22;25337;51.478;7.510;2022-08-03T10:42:36;34.40;79.40
39657;DHT22;25337;51.478;7.510;2022-08-03T10:45:04;34.70;78.80
39657;DHT22;25337;51.478;7.510;2022-08-03T10:47:30;35.10;79.40
39657;DHT22;25337;51.478;7.510;2022-08-03T10:49:56;35.40;78.30
39657;DHT22;25337;51.478;7.510;2022-08-03T10:52:22;34.90;79.40
39657;DHT22;25337;51.478;7.510;2022-08-03T10:54:47;35.00;78.70
39657;DHT22;25337;51.478;7.510;2022-08-03T11:00:13;34.70;78.60
39657;DHT22;25337;51.478;7.510;2022-08-03T11:05:24;34.80;77.10
39657;DHT22;25337;51.478;7.510;2022-08-03T11:07:49;34.30;78.00
39657;DHT22;25337;51.478;7.510;2022-08-03T11:10:28;34.60;77.40
39657;DHT22;25337;51.478;7.510;2022-08-03T11:13:02;34.30;78.70
39657;DHT22;25337;51.478;7.510;2022-08-03T11:15:30;35.30;77.60
39657;DHT22;25337;51.478;7.510;2022-08-03T11:18:09;35.40;75.90
39657;DHT22;25337;51.478;7.510;2022-08-03T11:23:13;36.30;75.20
39657;DHT22;25337;51.478;7.510;2022-08-03T11:28:26;36.40;73.40
39657;DHT22;25337;51.478;7.510;2022-08-03T11:30:52;36.50;74.60
39657;DHT22;25337;51.478;7.510;2022-08-03T11:33:28;37.20;72.10
39657;DHT22;25337;51.478;7.510;2022-08-03T11:35:57;37.10;72.40
39657;DHT22;25337;51.478;7.510;2022-08-03T11:38:23;37.00;71.30
39657;DHT22;25337;51.478;7.510;2022-08-03T11:40:52;37.00;72.70
39657;DHT22;25337;51.478;7.510;2022-08-03T11:46:05;36.60;71.00
39657;DHT22;25337;51.478;7.510;2022-08-03T11:51:03;35.90;70.90
39657;DHT22;25337;51.478;7.510;2022-08-03T11:53:29;35.70;71.80
39657;DHT22;25337;51.478;7.510;2022-08-03T11:55:57;35.90;71.80
39657;DHT22;25337;51.478;7.510;2022-08-03T11:58:22;37.00;71.50
39657;DHT22;25337;51.478;7.510;2022-08-03T12:00:49;37.60;69.40
39657;DHT22;25337;51.478;7.510;2022-08-03T12:03:16;36.90;69.50
39657;DHT22;25337;51.478;7.510;2022-08-03T12:05:49;37.70;68.60
39657;DHT22;25337;51.478;7.510;2022-08-03T12:08:16;37.50;68.60
39657;DHT22;25337;51.478;7.510;2022-08-03T12:10:46;38.30;68.10
39657;DHT22;25337;51.478;7.510;2022-08-03T12:13:12;37.30;68.90
39657;DHT22;25337;51.478;7.510;2022-08-03T12:15:38;36.40;70.70
39657;DHT22;25337;51.478;7.510;2022-08-03T12:18:12;36.80;69.90
39657;DHT22;25337;51.478;7.510;2022-08-03T12:20:38;37.70;68.80
39657;DHT22;25337;51.478;7.510;2022-08-03T12:23:04;38.40;67.20
39657;DHT22;25337;51.478;7.510;2022-08-03T12:25:30;39.10;68.10
39657;DHT22;25337;51.478;7.510;2022-08-03T12:28:07;38.80;66.60
39657;DHT22;25337;51.478;7.510;2022-08-03T12:30:33;38.60;67.40
39657;DHT22;25337;51.478;7.510;2022-08-03T12:33:10;38.80;66.40
39657;DHT22;25337;51.478;7.510;2022-08-03T12:35:36;38.30;67.10
39657;DHT22;25337;51.478;7.510;2022-08-03T12:38:01;38.60;67.00
39657;DHT22;25337;51.478;7.510;2022-08-03T12:40:27;39.20;66.40
39657;DHT22;25337;51.478;7.510;2022-08-03T12:42:52;39.80;65.90
39657;DHT22;25337;51.478;7.510;2022-08-03T12:47:48;39.60;65.20
39657;DHT22;25337;51.478;7.510;2022-08-03T12:50:22;39.50;65.00
39657;DHT22;25337;51.478;7.510;2022-08-03T12:52:47;37.40;66.20
39657;DHT22;25337;51.478;7.510;2022-08-03T12:55:18;37.90;66.10
39657;DHT22;25337;51.478;7.510;2022-08-03T12:57:44;37.80;66.10
39657;DHT22;25337;51.478;7.510;2022-08-03T13:00:10;38.10;65.40
39657;DHT22;25337;51.478;7.510;2022-08-03T13:02:36;38.20;65.30
39657;DHT22;25337;51.478;7.510;2022-08-03T13:05:08;38.10;65.60
39657;DHT22;25337;51.478;7.510;2022-08-03T13:07:38;37.80;66.30
39657;DHT22;25337;51.478;7.510;2022-08-03T13:10:04;38.20;65.10
39657;DHT22;25337;51.478;7.510;2022-08-03T13:12:30;38.40;65.10
39657;DHT22;25337;51.478;7.510;2022-08-03T13:14:57;38.80;64.60
39657;DHT22;25337;51.478;7.510;2022-08-03T13:17:23;39.70;65.00
39657;DHT22;25337;51.478;7.510;2022-08-03T13:19:49;39.90;64.00
39657;DHT22;25337;51.478;7.510;2022-08-03T13:24:40;40.10;63.50
39657;DHT22;25337;51.478;7.510;2022-08-03T13:27:06;39.20;64.70
39657;DHT22;25337;51.478;7.510;2022-08-03T13:29:33;40.00;64.70
39657;DHT22;25337;51.478;7.510;2022-08-03T13:31:59;40.40;63.90
39657;DHT22;25337;51.478;7.510;2022-08-03T13:34:24;40.20;63.40
39657;DHT22;25337;51.478;7.510;2022-08-03T13:36:51;40.20;63.90
39657;DHT22;25337;51.478;7.510;2022-08-03T13:39:16;40.60;62.50
39657;DHT22;25337;51.478;7.510;2022-08-03T13:41:44;41.30;62.60
39657;DHT22;25337;51.478;7.510;2022-08-03T13:44:09;41.20;62.00
39657;DHT22;25337;51.478;7.510;2022-08-03T13:46:35;41.80;61.10
39657;DHT22;25337;51.478;7.510;2022-08-03T13:49:00;41.20;61.50
39657;DHT22;25337;51.478;7.510;2022-08-03T13:51:26;41.10;61.20
39657;DHT22;25337;51.478;7.510;2022-08-03T13:53:51;42.20;59.80
39657;DHT22;25337;51.478;7.510;2022-08-03T13:56:17;42.50;60.20
39657;DHT22;25337;51.478;7.510;2022-08-03T13:58:42;40.70;60.20
39657;DHT22;25337;51.478;7.510;2022-08-03T14:01:08;40.80;61.40
39657;DHT22;25337;51.478;7.510;2022-08-03T14:03:33;40.00;61.60
39657;DHT22;25337;51.478;7.510;2022-08-03T14:05:59;40.00;61.70
39657;DHT22;25337;51.478;7.510;2022-08-03T14:08:24;39.50;61.30
39657;DHT22;25337;51.478;7.510;2022-08-03T14:10:50;39.40;62.70
39657;DHT22;25337;51.478;7.510;2022-08-03T14:13:15;41.50;61.60
39657;DHT22;25337;51.478;7.510;2022-08-03T14:15:41;41.20;60.10
39657;DHT22;25337;51.478;7.510;2022-08-03T14:18:07;41.40;59.50
39657;DHT22;25337;51.478;7.510;2022-08-03T14:20:33;42.40;60.50
39657;DHT22;25337;51.478;7.510;2022-08-03T14:22:59;40.30;60.60
39657;DHT22;25337;51.478;7.510;2022-08-03T14:25:24;39.60;61.50
39657;DHT22;25337;51.478;7.510;2022-08-03T14:27:50;39.00;61.80
39657;DHT22;25337;51.478;7.510;2022-08-03T14:30:16;39.60;61.30
39657;DHT22;25337;51.478;7.510;2022-08-03T14:32:41;40.30;60.50
39657;DHT22;25337;51.478;7.510;2022-08-03T14:35:07;41.30;60.00
39657;DHT22;25337;51.478;7.510;2022-08-03T14:37:33;41.30;60.20
39657;DHT22;25337;51.478;7.510;2022-08-03T14:39:58;40.40;59.20
39657;DHT22;25337;51.478;7.510;2022-08-03T14:42:24;40.40;59.10
39657;DHT22;25337;51.478;7.510;2022-08-03T14:44:50;39.40;60.20
39657;DHT22;25337;51.478;7.510;2022-08-03T14:47:15;37.90;60.80
39657;DHT22;25337;51.478;7.510;2022-08-03T14:49:41;37.10;62.40
39657;DHT22;25337;51.478;7.510;2022-08-03T14:52:06;36.80;62.90
39657;DHT22;25337;51.478;7.510;2022-08-03T14:54:32;38.10;63.20
39657;DHT22;25337;51.478;7.510;2022-08-03T14:56:58;39.00;60.90
39657;DHT22;25337;51.478;7.510;2022-08-03T14:59:24;40.90;60.40
39657;DHT22;25337;51.478;7.510;2022-08-03T15:01:50;41.70;58.70
39657;DHT22;25337;51.478;7.510;2022-08-03T15:04:15;42.40;58.30
39657;DHT22;25337;51.478;7.510;2022-08-03T15:06:41;42.70;57.70
39657;DHT22;25337;51.478;7.510;2022-08-03T15:09:06;43.10;56.60
39657;DHT22;25337;51.478;7.510;2022-08-03T15:11:32;42.70;57.20
39657;DHT22;25337;51.478;7.510;2022-08-03T15:13:57;42.20;58.20
39657;DHT22;25337;51.478;7.510;2022-08-03T15:16:23;41.10;58.60
39657;DHT22;25337;51.478;7.510;2022-08-03T15:18:48;39.90;59.00
39657;DHT22;25337;51.478;7.510;2022-08-03T15:21:14;39.40;59.80
39657;DHT22;25337;51.478;7.510;2022-08-03T15:23:39;38.90;59.60
39657;DHT22;25337;51.478;7.510;2022-08-03T15:26:05;38.10;60.80
39657;DHT22;25337;51.478;7.510;2022-08-03T15:28:30;37.20;61.50
39657;DHT22;25337;51.478;7.510;2022-08-03T15:30:56;36.50;62.20
39657;DHT22;25337;51.478;7.510;2022-08-03T15:33:22;36.70;62.50
39657;DHT22;25337;51.478;7.510;2022-08-03T15:35:47;36.90;62.00
39657;DHT22;25337;51.478;7.510;2022-08-03T15:38:13;37.90;62.50
39657;DHT22;25337;51.478;7.510;2022-08-03T15:40:39;39.20;60.30
39657;DHT22;25337;51.478;7.510;2022-08-03T15:43:05;39.40;59.70
39657;DHT22;25337;51.478;7.510;2022-08-03T15:45:31;40.70;59.40
39657;DHT22;25337;51.478;7.510;2022-08-03T15:47:56;40.90;58.30
39657;DHT22;25337;51.478;7.510;2022-08-03T15:50:22;42.50;57.40
39657;DHT22;25337;51.478;7.510;2022-08-03T15:52:47;42.20;57.70
39657;DHT22;25337;51.478;7.510;2022-08-03T15:55:13;41.10;57.30
39657;DHT22;25337;51.478;7.510;2022-08-03T15:57:39;40.30;57.70
39657;DHT22;25337;51.478;7.510;2022-08-03T16:00:05;39.00;59.50
39657;DHT22;25337;51.478;7.510;2022-08-03T16:02:31;38.70;58.30